sensor_id;sensor_type;location;lat;lon;timestamp;temperature;humidity
57843;DHT22;43673;51.058;3.734;2023-08-12T00:01:51;22.70;99.90
57843;DHT22;43673;51.058;3.734;2023-08-12T00:04:16;22.70;99.90
57843;DHT22;43673;51.058;3.734;2023-08-12T00:06:43;22.70;99.90
57843;DHT22;43673;51.058;3.734;2023-08-12T00:09:09;22.70;99.90
57843;DHT22;43673;51.058;3.734;2023-08-12T00:11:37;22.70;99.90
57843;DHT22;43673;51.058;3.734;2023-08-12T00:14:04;22.70;99.90
57843;DHT22;43673;51.058;3.734;2023-08-12T00:16:29;22.60;99.90
57843;DHT22;43673;51.058;3.734;2023-08-12T00:18:55;22.60;99.90
57843;DHT22;43673;51.058;3.734;2023-08-12T00:21:21;22.50;99.90
57843;DHT22;43673;51.058;3.734;2023-08-12T00:23:47;22.50;99.90
57843;DHT22;43673;51.058;3.734;2023-08-12T00:26:15;22.50;99.90
57843;DHT22;43673;51.058;3.734;2023-08-12T00:28:41;22.40;99.90
57843;DHT22;43673;51.058;3.734;2023-08-12T00:31:07;22.50;99.90
57843;DHT22;43673;51.058;3.734;2023-08-12T00:33:33;22.60;99.90
57843;DHT22;43673;51.058;3.734;2023-08-12T00:35:59;22.60;99.90
57843;DHT22;43673;51.058;3.734;2023-08-12T00:38:25;22.60;99.90
57843;DHT22;43673;51.058;3.734;2023-08-12T00:40:50;22.60;99.90
57843;DHT22;43673;51.058;3.734;2023-08-12T00:43:16;22.50;99.90
57843;DHT22;43673;51.058;3.734;2023-08-12T00:45:42;22.50;99.90
57843;DHT22;43673;51.058;3.734;2023-08-12T00:48:08;22.50;99.90
57843;DHT22;43673;51.058;3.734;2023-08-12T00:50:36;22.30;99.90
57843;DHT22;43673;51.058;3.734;2023-08-12T00:53:04;22.50;99.90
57843;DHT22;43673;51.058;3.734;2023-08-12T00:55:32;22.40;99.90
57843;DHT22;43673;51.058;3.734;2023-08-12T00:57:58;22.40;99.90
57843;DHT22;43673;51.058;3.734;2023-08-12T01:00:24;22.30;99.90
57843;DHT22;43673;51.058;3.734;2023-08-12T01:02:51;22.30;99.90
57843;DHT22;43673;51.058;3.734;2023-08-12T01:05:18;22.30;99.90
57843;DHT22;43673;51.058;3.734;2023-08-12T01:07:45;22.30;99.90
57843;DHT22;43673;51.058;3.734;2023-08-12T01:10:12;22.30;99.90
57843;DHT22;43673;51.058;3.734;2023-08-12T01:12:54;22.20;99.90
57843;DHT22;43673;51.058;3.734;2023-08-12T01:15:24;22.20;99.90
57843;DHT22;43673;51.058;3.734;2023-08-12T01:17:53;22.20;99.90
57843;DHT22;43673;51.058;3.734;2023-08-12T01:20:23;22.20;99.90
57843;DHT22;43673;51.058;3.734;2023-08-12T01:23:14;22.20;99.90
57843;DHT22;43673;51.058;3.734;2023-08-12T01:25:40;22.20;99.90
57843;DHT22;43673;51.058;3.734;2023-08-12T01:28:07;22.20;99.90
57843;DHT22;43673;51.058;3.734;2023-08-12T01:30:36;22.30;99.90
57843;DHT22;43673;51.058;3.734;2023-08-12T01:35:42;22.20;99.90
57843;DHT22;43673;51.058;3.734;2023-08-12T01:38:09;22.20;99.90
57843;DHT22;43673;51.058;3.734;2023-08-12T01:40:38;22.20;99.90
57843;DHT22;43673;51.058;3.734;2023-08-12T01:43:05;22.10;99.90
57843;DHT22;43673;51.058;3.734;2023-08-12T01:45:32;22.10;99.90
57843;DHT22;43673;51.058;3.734;2023-08-12T01:47:59;22.00;99.90
57843;DHT22;43673;51.058;3.734;2023-08-12T01:50:24;22.00;99.90
57843;DHT22;43673;51.058;3.734;2023-08-12T01:52:51;22.00;99.90
57843;DHT22;43673;51.058;3.734;2023-08-12T01:55:16;21.90;99.90
57843;DHT22;43673;51.058;3.734;2023-08-12T01:57:42;21.90;99.90
57843;DHT22;43673;51.058;3.734;2023-08-12T02:00:08;21.90;99.90
57843;DHT22;43673;51.058;3.734;2023-08-12T02:02:34;21.80;99.90
57843;DHT22;43673;51.058;3.734;2023-08-12T02:04:59;21.90;99.90
57843;DHT22;43673;51.058;3.734;2023-08-12T02:07:25;21.90;99.90
57843;DHT22;43673;51.058;3.734;2023-08-12T02:09:51;21.90;99.90
57843;DHT22;43673;51.058;3.734;2023-08-12T02:12:17;21.90;99.90
57843;DHT22;43673;51.058;3.734;2023-08-12T02:14:42;21.80;99.90
57843;DHT22;43673;51.058;3.734;2023-08-12T02:17:08;21.80;99.90
57843;DHT22;43673;51.058;3.734;2023-08-12T02:19:34;21.80;99.90
57843;DHT22;43673;51.058;3.734;2023-08-12T02:22:00;21.80;99.90
57843;DHT22;43673;51.058;3.734;2023-08-12T02:24:27;21.80;99.90
57843;DHT22;43673;51.058;3.734;2023-08-12T02:26:53;21.80;99.90
57843;DHT22;43673;51.058;3.734;2023-08-12T02:29:18;21.70;99.90
57843;DHT22;43673;51.058;3.734;2023-08-12T02:31:44;21.60;99.90
57843;DHT22;43673;51.058;3.734;2023-08-12T02:34:10;21.50;99.90
57843;DHT22;43673;51.058;3.734;2023-08-12T02:36:35;21.40;99.90
57843;DHT22;43673;51.058;3.734;2023-08-12T02:39:01;21.30;99.90
57843;DHT22;43673;51.058;3.734;2023-08-12T02:41:27;21.20;99.90
57843;DHT22;43673;51.058;3.734;2023-08-12T02:43:53;21.20;99.90
57843;DHT22;43673;51.058;3.734;2023-08-12T02:46:19;21.10;99.90
57843;DHT22;43673;51.058;3.734;2023-08-12T02:48:45;21.10;99.90
57843;DHT22;43673;51.058;3.734;2023-08-12T02:51:13;21.10;99.90
57843;DHT22;43673;51.058;3.734;2023-08-12T02:53:38;21.00;99.90
57843;DHT22;43673;51.058;3.734;2023-08-12T02:56:04;20.90;99.90
57843;DHT22;43673;51.058;3.734;2023-08-12T02:58:30;21.00;99.90
57843;DHT22;43673;51.058;3.734;2023-08-12T03:00:56;21.00;99.90
57843;DHT22;43673;51.058;3.734;2023-08-12T03:03:22;21.00;99.90
57843;DHT22;43673;51.058;3.734;2023-08-12T03:05:48;21.00;99.90
57843;DHT22;43673;51.058;3.734;2023-08-12T03:08:14;21.10;99.90
57843;DHT22;43673;51.058;3.734;2023-08-12T03:10:41;21.10;99.90
57843;DHT22;43673;51.058;3.734;2023-08-12T03:13:07;21.00;99.90
57843;DHT22;43673;51.058;3.734;2023-08-12T03:15:32;20.90;99.90
57843;DHT22;43673;51.058;3.734;2023-08-12T03:17:58;20.90;99.90
57843;DHT22;43673;51.058;3.734;2023-08-12T03:20:24;20.90;99.90
57843;DHT22;43673;51.058;3.734;2023-08-12T03:22:50;20.90;99.90
57843;DHT22;43673;51.058;3.734;2023-08-12T03:25:15;20.80;99.90
57843;DHT22;43673;51.058;3.734;2023-08-12T03:27:41;20.70;99.90
57843;DHT22;43673;51.058;3.734;2023-08-12T03:30:08;20.70;99.90
57843;DHT22;43673;51.058;3.734;2023-08-12T03:32:33;20.60;99.90
57843;DHT22;43673;51.058;3.734;2023-08-12T03:34:59;20.60;99.90
57843;DHT22;43673;51.058;3.734;2023-08-12T03:37:26;20.70;99.90
57843;DHT22;43673;51.058;3.734;2023-08-12T03:39:51;20.60;99.90
57843;DHT22;43673;51.058;3.734;2023-08-12T03:42:17;20.60;99.90
57843;DHT22;43673;51.058;3.734;2023-08-12T03:44:45;20.70;99.90
57843;DHT22;43673;51.058;3.734;2023-08-12T03:47:11;20.70;99.90
57843;DHT22;43673;51.058;3.734;2023-08-12T03:49:37;20.70;99.90
57843;DHT22;43673;51.058;3.734;2023-08-12T03:52:03;20.70;99.90
57843;DHT22;43673;51.058;3.734;2023-08-12T03:54:29;20.70;99.90
57843;DHT22;43673;51.058;3.734;2023-08-12T03:56:55;20.70;99.90
57843;DHT22;43673;51.058;3.734;2023-08-12T03:59:22;20.70;99.90
57843;DHT22;43673;51.058;3.734;2023-08-12T04:01:48;20.60;99.90
57843;DHT22;43673;51.058;3.734;2023-08-12T04:04:13;20.60;99.90
57843;DHT22;43673;51.058;3.734;2023-08-12T04:06:39;20.60;99.90
57843;DHT22;43673;51.058;3.734;2023-08-12T04:09:05;20.70;99.90
57843;DHT22;43673;51.058;3.734;2023-08-12T04:11:31;20.60;99.90
57843;DHT22;43673;51.058;3.734;2023-08-12T04:13:56;20.60;99.90
57843;DHT22;43673;51.058;3.734;2023-08-12T04:16:22;20.60;99.90
57843;DHT22;43673;51.058;3.734;2023-08-12T04:18:48;20.60;99.90
57843;DHT22;43673;51.058;3.734;2023-08-12T04:21:14;20.60;99.90
57843;DHT22;43673;51.058;3.734;2023-08-12T04:23:40;20.60;99.90
57843;DHT22;43673;51.058;3.734;2023-08-12T04:26:06;20.60;99.90
57843;DHT22;43673;51.058;3.734;2023-08-12T04:28:31;20.60;99.90
57843;DHT22;43673;51.058;3.734;2023-08-12T04:30:57;20.60;99.90
57843;DHT22;43673;51.058;3.734;2023-08-12T04:33:23;20.60;99.90
57843;DHT22;43673;51.058;3.734;2023-08-12T04:35:49;20.60;99.90
57843;DHT22;43673;51.058;3.734;2023-08-12T04:38:15;20.60;99.90
57843;DHT22;43673;51.058;3.734;2023-08-12T04:40:41;20.60;99.90
57843;DHT22;43673;51.058;3.734;2023-08-12T04:43:10;20.60;99.90
57843;DHT22;43673;51.058;3.734;2023-08-12T04:45:37;20.60;99.90
57843;DHT22;43673;51.058;3.734;2023-08-12T04:48:04;20.50;99.90
57843;DHT22;43673;51.058;3.734;2023-08-12T04:50:33;20.50;99.90
57843;DHT22;43673;51.058;3.734;2023-08-12T04:53:00;20.60;99.90
57843;DHT22;43673;51.058;3.734;2023-08-12T04:55:26;20.60;99.90
57843;DHT22;43673;51.058;3.734;2023-08-12T04:57:52;20.60;99.90
57843;DHT22;43673;51.058;3.734;2023-08-12T05:00:19;20.60;99.90
57843;DHT22;43673;51.058;3.734;2023-08-12T05:02:45;20.70;99.90
57843;DHT22;43673;51.058;3.734;2023-08-12T05:05:11;20.60;99.90
57843;DHT22;43673;51.058;3.734;2023-08-12T05:07:36;20.60;99.90
57843;DHT22;43673;51.058;3.734;2023-08-12T05:10:02;20.70;99.90
57843;DHT22;43673;51.058;3.734;2023-08-12T05:12:28;20.70;99.90
57843;DHT22;43673;51.058;3.734;2023-08-12T05:14:53;20.60;99.90
57843;DHT22;43673;51.058;3.734;2023-08-12T05:17:19;20.60;99.90
57843;DHT22;43673;51.058;3.734;2023-08-12T05:19:45;20.60;99.90
57843;DHT22;43673;51.058;3.734;2023-08-12T05:22:11;20.60;99.90
57843;DHT22;43673;51.058;3.734;2023-08-12T05:24:36;20.60;99.90
57843;DHT22;43673;51.058;3.734;2023-08-12T05:27:02;20.60;99.90
57843;DHT22;43673;51.058;3.734;2023-08-12T05:29:30;20.50;99.90
57843;DHT22;43673;51.058;3.734;2023-08-12T05:31:55;20.50;99.90
57843;DHT22;43673;51.058;3.734;2023-08-12T05:34:21;20.40;99.90
57843;DHT22;43673;51.058;3.734;2023-08-12T05:36:47;20.40;99.90
57843;DHT22;43673;51.058;3.734;2023-08-12T05:39:13;20.30;99.90
57843;DHT22;43673;51.058;3.734;2023-08-12T05:41:38;20.20;99.90
57843;DHT22;43673;51.058;3.734;2023-08-12T05:44:04;20.10;99.90
57843;DHT22;43673;51.058;3.734;2023-08-12T05:46:30;20.00;99.90
57843;DHT22;43673;51.058;3.734;2023-08-12T05:48:56;19.80;99.90
57843;DHT22;43673;51.058;3.734;2023-08-12T05:51:22;19.70;99.90
57843;DHT22;43673;51.058;3.734;2023-08-12T05:53:48;19.60;99.90
57843;DHT22;43673;51.058;3.734;2023-08-12T05:56:14;19.60;99.90
57843;DHT22;43673;51.058;3.734;2023-08-12T05:58:40;19.50;99.90
57843;DHT22;43673;51.058;3.734;2023-08-12T06:01:05;19.50;99.90
57843;DHT22;43673;51.058;3.734;2023-08-12T06:03:31;19.40;99.90
57843;DHT22;43673;51.058;3.734;2023-08-12T06:05:57;19.40;99.90
57843;DHT22;43673;51.058;3.734;2023-08-12T06:08:22;19.40;99.90
57843;DHT22;43673;51.058;3.734;2023-08-12T06:10:48;19.40;99.90
57843;DHT22;43673;51.058;3.734;2023-08-12T06:13:14;19.30;99.90
57843;DHT22;43673;51.058;3.734;2023-08-12T06:15:39;19.40;99.90
57843;DHT22;43673;51.058;3.734;2023-08-12T06:18:05;19.40;99.90
57843;DHT22;43673;51.058;3.734;2023-08-12T06:20:31;19.50;99.90
57843;DHT22;43673;51.058;3.734;2023-08-12T06:22:57;19.40;99.90
57843;DHT22;43673;51.058;3.734;2023-08-12T06:25:22;19.40;99.90
57843;DHT22;43673;51.058;3.734;2023-08-12T06:27:48;19.30;99.90
57843;DHT22;43673;51.058;3.734;2023-08-12T06:30:14;19.40;99.90
57843;DHT22;43673;51.058;3.734;2023-08-12T06:32:40;19.60;99.90
57843;DHT22;43673;51.058;3.734;2023-08-12T06:35:06;19.70;99.90
57843;DHT22;43673;51.058;3.734;2023-08-12T06:37:32;19.70;99.90
57843;DHT22;43673;51.058;3.734;2023-08-12T06:39:58;19.70;99.90
57843;DHT22;43673;51.058;3.734;2023-08-12T06:42:24;19.70;99.90
57843;DHT22;43673;51.058;3.734;2023-08-12T06:44:57;19.80;99.90
57843;DHT22;43673;51.058;3.734;2023-08-12T06:47:22;19.90;99.90
57843;DHT22;43673;51.058;3.734;2023-08-12T06:49:48;19.90;99.90
57843;DHT22;43673;51.058;3.734;2023-08-12T06:52:14;19.90;99.90
57843;DHT22;43673;51.058;3.734;2023-08-12T06:54:39;20.00;99.90
57843;DHT22;43673;51.058;3.734;2023-08-12T06:57:05;20.10;99.90
57843;DHT22;43673;51.058;3.734;2023-08-12T06:59:31;20.10;99.90
57843;DHT22;43673;51.058;3.734;2023-08-12T07:01:56;20.10;99.90
57843;DHT22;43673;51.058;3.734;2023-08-12T07:04:22;20.10;99.90
57843;DHT22;43673;51.058;3.734;2023-08-12T07:06:48;20.00;99.90
57843;DHT22;43673;51.058;3.734;2023-08-12T07:09:14;20.10;99.90
57843;DHT22;43673;51.058;3.734;2023-08-12T07:11:40;20.20;99.90
57843;DHT22;43673;51.058;3.734;2023-08-12T07:14:05;20.10;99.90
57843;DHT22;43673;51.058;3.734;2023-08-12T07:16:31;20.10;99.90
57843;DHT22;43673;51.058;3.734;2023-08-12T07:18:57;20.10;99.90
57843;DHT22;43673;51.058;3.734;2023-08-12T07:21:22;20.20;99.90
57843;DHT22;43673;51.058;3.734;2023-08-12T07:23:48;20.50;99.90
57843;DHT22;43673;51.058;3.734;2023-08-12T07:26:14;21.30;99.90
57843;DHT22;43673;51.058;3.734;2023-08-12T07:28:42;21.50;99.90
57843;DHT22;43673;51.058;3.734;2023-08-12T07:31:08;21.30;99.90
57843;DHT22;43673;51.058;3.734;2023-08-12T07:33:41;21.20;99.90
57843;DHT22;43673;51.058;3.734;2023-08-12T07:36:07;21.40;99.90
57843;DHT22;43673;51.058;3.734;2023-08-12T07:38:33;21.70;99.90
57843;DHT22;43673;51.058;3.734;2023-08-12T07:41:02;22.00;99.90
57843;DHT22;43673;51.058;3.734;2023-08-12T07:43:28;22.40;99.90
57843;DHT22;43673;51.058;3.734;2023-08-12T07:45:56;23.80;99.90
57843;DHT22;43673;51.058;3.734;2023-08-12T07:48:22;24.00;99.90
57843;DHT22;43673;51.058;3.734;2023-08-12T07:51:11;24.20;99.90
57843;DHT22;43673;51.058;3.734;2023-08-12T07:53:37;24.00;99.90
57843;DHT22;43673;51.058;3.734;2023-08-12T07:56:03;23.80;99.90
57843;DHT22;43673;51.058;3.734;2023-08-12T07:58:29;23.50;99.90
57843;DHT22;43673;51.058;3.734;2023-08-12T08:00:55;23.80;99.90
57843;DHT22;43673;51.058;3.734;2023-08-12T08:03:21;24.30;99.90
57843;DHT22;43673;51.058;3.734;2023-08-12T08:05:47;25.10;99.90
57843;DHT22;43673;51.058;3.734;2023-08-12T08:08:15;26.00;99.90
57843;DHT22;43673;51.058;3.734;2023-08-12T08:10:41;28.10;99.90
57843;DHT22;43673;51.058;3.734;2023-08-12T08:13:06;28.80;99.90
57843;DHT22;43673;51.058;3.734;2023-08-12T08:15:32;29.40;99.90
57843;DHT22;43673;51.058;3.734;2023-08-12T08:17:58;29.10;99.90
57843;DHT22;43673;51.058;3.734;2023-08-12T08:20:27;29.10;99.90
57843;DHT22;43673;51.058;3.734;2023-08-12T08:22:56;27.90;99.90
57843;DHT22;43673;51.058;3.734;2023-08-12T08:25:22;26.80;99.90
57843;DHT22;43673;51.058;3.734;2023-08-12T08:27:48;26.30;99.90
57843;DHT22;43673;51.058;3.734;2023-08-12T08:30:14;26.10;99.90
57843;DHT22;43673;51.058;3.734;2023-08-12T08:32:40;26.10;99.90
57843;DHT22;43673;51.058;3.734;2023-08-12T08:35:09;26.10;99.90
57843;DHT22;43673;51.058;3.734;2023-08-12T08:37:35;26.10;99.90
57843;DHT22;43673;51.058;3.734;2023-08-12T08:40:01;25.50;99.90
57843;DHT22;43673;51.058;3.734;2023-08-12T08:42:29;25.30;99.90
57843;DHT22;43673;51.058;3.734;2023-08-12T08:45:01;24.80;99.90
57843;DHT22;43673;51.058;3.734;2023-08-12T08:47:30;24.60;99.90
57843;DHT22;43673;51.058;3.734;2023-08-12T08:49:59;25.50;99.90
57843;DHT22;43673;51.058;3.734;2023-08-12T08:52:26;26.60;99.90
57843;DHT22;43673;51.058;3.734;2023-08-12T08:54:59;27.30;99.90
57843;DHT22;43673;51.058;3.734;2023-08-12T08:57:32;27.70;99.90
57843;DHT22;43673;51.058;3.734;2023-08-12T09:00:04;27.30;99.90
57843;DHT22;43673;51.058;3.734;2023-08-12T09:02:58;28.00;99.90
57843;DHT22;43673;51.058;3.734;2023-08-12T09:05:25;27.50;99.90
57843;DHT22;43673;51.058;3.734;2023-08-12T09:08:04;27.60;99.90
57843;DHT22;43673;51.058;3.734;2023-08-12T09:20:02;29.30;99.90
57843;DHT22;43673;51.058;3.734;2023-08-12T09:22:36;29.10;99.90
57843;DHT22;43673;51.058;3.734;2023-08-12T09:28:39;27.80;99.90
57843;DHT22;43673;51.058;3.734;2023-08-12T09:31:08;28.70;99.90
57843;DHT22;43673;51.058;3.734;2023-08-12T09:33:50;29.10;99.90
57843;DHT22;43673;51.058;3.734;2023-08-12T09:36:20;30.30;99.90
57843;DHT22;43673;51.058;3.734;2023-08-12T09:38:46;29.70;99.90
57843;DHT22;43673;51.058;3.734;2023-08-12T09:41:28;28.90;99.90
57843;DHT22;43673;51.058;3.734;2023-08-12T09:43:55;28.40;99.90
57843;DHT22;43673;51.058;3.734;2023-08-12T09:46:23;28.10;99.90
57843;DHT22;43673;51.058;3.734;2023-08-12T09:48:59;28.50;99.90
57843;DHT22;43673;51.058;3.734;2023-08-12T09:51:54;29.20;99.90
57843;DHT22;43673;51.058;3.734;2023-08-12T09:54:34;29.30;99.90
57843;DHT22;43673;51.058;3.734;2023-08-12T09:57:01;29.30;99.90
57843;DHT22;43673;51.058;3.734;2023-08-12T09:59:34;30.30;99.90
57843;DHT22;43673;51.058;3.734;2023-08-12T10:02:04;31.30;99.90
57843;DHT22;43673;51.058;3.734;2023-08-12T10:04:38;32.80;99.90
57843;DHT22;43673;51.058;3.734;2023-08-12T10:07:20;33.10;99.10
57843;DHT22;43673;51.058;3.734;2023-08-12T10:09:46;33.50;97.70
57843;DHT22;43673;51.058;3.734;2023-08-12T10:12:13;33.10;96.20
57843;DHT22;43673;51.058;3.734;2023-08-12T10:14:40;32.80;96.60
57843;DHT22;43673;51.058;3.734;2023-08-12T10:22:25;34.80;93.70
57843;DHT22;43673;51.058;3.734;2023-08-12T10:24:58;34.80;92.80
57843;DHT22;43673;51.058;3.734;2023-08-12T10:27:25;33.90;92.50
57843;DHT22;43673;51.058;3.734;2023-08-12T10:29:58;32.60;93.60
57843;DHT22;43673;51.058;3.734;2023-08-12T10:33:03;33.50;93.50
57843;DHT22;43673;51.058;3.734;2023-08-12T10:39:15;34.40;91.40
57843;DHT22;43673;51.058;3.734;2023-08-12T10:41:53;33.10;92.70
57843;DHT22;43673;51.058;3.734;2023-08-12T10:44:20;33.70;92.20
57843;DHT22;43673;51.058;3.734;2023-08-12T10:46:52;33.80;91.60
57843;DHT22;43673;51.058;3.734;2023-08-12T10:52:31;32.20;92.60
57843;DHT22;43673;51.058;3.734;2023-08-12T11:02:45;32.50;92.30
57843;DHT22;43673;51.058;3.734;2023-08-12T11:05:14;33.10;91.80
57843;DHT22;43673;51.058;3.734;2023-08-12T11:07:48;33.40;91.20
57843;DHT22;43673;51.058;3.734;2023-08-12T11:15:19;34.00;89.90
57843;DHT22;43673;51.058;3.734;2023-08-12T11:18:01;33.40;89.30
57843;DHT22;43673;51.058;3.734;2023-08-12T11:21:14;33.30;89.80
57843;DHT22;43673;51.058;3.734;2023-08-12T11:23:40;32.80;90.30
57843;DHT22;43673;51.058;3.734;2023-08-12T11:26:08;33.00;90.50
57843;DHT22;43673;51.058;3.734;2023-08-12T11:28:37;33.30;89.80
57843;DHT22;43673;51.058;3.734;2023-08-12T11:31:03;33.50;90.00
57843;DHT22;43673;51.058;3.734;2023-08-12T11:33:30;34.00;89.40
57843;DHT22;43673;51.058;3.734;2023-08-12T11:35:56;34.30;87.30
57843;DHT22;43673;51.058;3.734;2023-08-12T11:38:23;33.60;86.00
57843;DHT22;43673;51.058;3.734;2023-08-12T11:41:33;32.70;89.70
57843;DHT22;43673;51.058;3.734;2023-08-12T11:44:02;31.40;90.80
57843;DHT22;43673;51.058;3.734;2023-08-12T11:46:33;30.50;91.90
57843;DHT22;43673;51.058;3.734;2023-08-12T11:48:58;29.80;92.20
57843;DHT22;43673;51.058;3.734;2023-08-12T11:51:24;29.40;93.30
57843;DHT22;43673;51.058;3.734;2023-08-12T11:53:50;28.90;94.20
57843;DHT22;43673;51.058;3.734;2023-08-12T11:56:16;28.60;94.60
57843;DHT22;43673;51.058;3.734;2023-08-12T11:58:41;28.10;95.00
57843;DHT22;43673;51.058;3.734;2023-08-12T12:01:07;27.90;95.30
57843;DHT22;43673;51.058;3.734;2023-08-12T12:03:33;27.60;96.00
57843;DHT22;43673;51.058;3.734;2023-08-12T12:06:00;27.40;96.90
57843;DHT22;43673;51.058;3.734;2023-08-12T12:08:26;27.40;96.70
57843;DHT22;43673;51.058;3.734;2023-08-12T12:10:51;27.30;96.50
57843;DHT22;43673;51.058;3.734;2023-08-12T12:13:17;27.00;96.50
57843;DHT22;43673;51.058;3.734;2023-08-12T12:15:43;26.80;96.20
57843;DHT22;43673;51.058;3.734;2023-08-12T12:18:13;26.60;96.70
57843;DHT22;43673;51.058;3.734;2023-08-12T12:20:53;26.60;97.50
57843;DHT22;43673;51.058;3.734;2023-08-12T12:23:20;26.50;98.00
57843;DHT22;43673;51.058;3.734;2023-08-12T12:25:45;26.70;98.10
57843;DHT22;43673;51.058;3.734;2023-08-12T12:28:11;26.70;98.20
57843;DHT22;43673;51.058;3.734;2023-08-12T12:30:37;26.90;98.50
57843;DHT22;43673;51.058;3.734;2023-08-12T12:33:03;26.90;99.10
57843;DHT22;43673;51.058;3.734;2023-08-12T12:35:28;26.90;98.10
57843;DHT22;43673;51.058;3.734;2023-08-12T12:37:54;26.70;98.50
57843;DHT22;43673;51.058;3.734;2023-08-12T12:40:20;26.80;98.70
57843;DHT22;43673;51.058;3.734;2023-08-12T12:42:45;26.80;98.10
57843;DHT22;43673;51.058;3.734;2023-08-12T12:45:12;26.90;97.20
57843;DHT22;43673;51.058;3.734;2023-08-12T12:47:37;26.90;96.70
57843;DHT22;43673;51.058;3.734;2023-08-12T12:50:04;26.80;97.00
57843;DHT22;43673;51.058;3.734;2023-08-12T12:52:30;26.70;97.20
57843;DHT22;43673;51.058;3.734;2023-08-12T12:54:55;26.50;97.80
57843;DHT22;43673;51.058;3.734;2023-08-12T12:57:22;26.40;97.10
57843;DHT22;43673;51.058;3.734;2023-08-12T12:59:48;26.00;96.60
57843;DHT22;43673;51.058;3.734;2023-08-12T13:02:14;25.90;97.00
57843;DHT22;43673;51.058;3.734;2023-08-12T13:04:40;26.00;96.90
57843;DHT22;43673;51.058;3.734;2023-08-12T13:07:06;26.00;97.10
57843;DHT22;43673;51.058;3.734;2023-08-12T13:09:31;26.10;96.60
57843;DHT22;43673;51.058;3.734;2023-08-12T13:11:57;26.20;95.90
57843;DHT22;43673;51.058;3.734;2023-08-12T13:14:23;26.20;96.20
57843;DHT22;43673;51.058;3.734;2023-08-12T13:16:49;26.10;95.40
57843;DHT22;43673;51.058;3.734;2023-08-12T13:19:15;26.00;96.20
57843;DHT22;43673;51.058;3.734;2023-08-12T13:21:40;26.00;96.30
57843;DHT22;43673;51.058;3.734;2023-08-12T13:24:06;26.00;96.10
57843;DHT22;43673;51.058;3.734;2023-08-12T13:26:32;25.90;96.30
57843;DHT22;43673;51.058;3.734;2023-08-12T13:28:58;26.00;96.40
57843;DHT22;43673;51.058;3.734;2023-08-12T13:31:24;26.10;96.40
57843;DHT22;43673;51.058;3.734;2023-08-12T13:33:50;26.20;96.20
57843;DHT22;43673;51.058;3.734;2023-08-12T13:36:16;26.20;95.80
57843;DHT22;43673;51.058;3.734;2023-08-12T13:38:42;26.20;95.20
57843;DHT22;43673;51.058;3.734;2023-08-12T13:41:07;26.20;94.70
57843;DHT22;43673;51.058;3.734;2023-08-12T13:43:33;25.90;94.90
57843;DHT22;43673;51.058;3.734;2023-08-12T13:46:00;25.80;95.00
57843;DHT22;43673;51.058;3.734;2023-08-12T13:48:26;25.80;95.10
57843;DHT22;43673;51.058;3.734;2023-08-12T13:50:52;25.80;94.90
57843;DHT22;43673;51.058;3.734;2023-08-12T13:53:18;26.00;94.80
57843;DHT22;43673;51.058;3.734;2023-08-12T13:55:44;26.10;96.00
57843;DHT22;43673;51.058;3.734;2023-08-12T13:58:11;26.10;94.70
57843;DHT22;43673;51.058;3.734;2023-08-12T14:00:37;26.30;94.20
57843;DHT22;43673;51.058;3.734;2023-08-12T14:03:03;26.30;93.90
57843;DHT22;43673;51.058;3.734;2023-08-12T14:05:29;26.20;93.10
57843;DHT22;43673;51.058;3.734;2023-08-12T14:07:55;26.20;93.40
57843;DHT22;43673;51.058;3.734;2023-08-12T14:10:20;26.10;94.00
57843;DHT22;43673;51.058;3.734;2023-08-12T14:12:46;26.10;94.40
57843;DHT22;43673;51.058;3.734;2023-08-12T14:15:14;26.30;94.60
57843;DHT22;43673;51.058;3.734;2023-08-12T14:17:40;26.40;93.60
57843;DHT22;43673;51.058;3.734;2023-08-12T14:20:06;26.40;93.70
57843;DHT22;43673;51.058;3.734;2023-08-12T14:22:34;26.50;93.30
57843;DHT22;43673;51.058;3.734;2023-08-12T14:25:01;26.50;93.50
57843;DHT22;43673;51.058;3.734;2023-08-12T14:27:27;26.40;93.60
57843;DHT22;43673;51.058;3.734;2023-08-12T14:29:53;26.30;93.60
57843;DHT22;43673;51.058;3.734;2023-08-12T14:32:18;26.30;93.40
57843;DHT22;43673;51.058;3.734;2023-08-12T14:34:44;26.00;93.80
57843;DHT22;43673;51.058;3.734;2023-08-12T14:37:13;26.10;93.80
57843;DHT22;43673;51.058;3.734;2023-08-12T14:39:39;26.20;93.70
57843;DHT22;43673;51.058;3.734;2023-08-12T14:42:05;26.20;93.80
57843;DHT22;43673;51.058;3.734;2023-08-12T14:44:33;26.10;93.30
57843;DHT22;43673;51.058;3.734;2023-08-12T14:47:00;26.20;93.30
57843;DHT22;43673;51.058;3.734;2023-08-12T14:49:26;26.20;93.40
57843;DHT22;43673;51.058;3.734;2023-08-12T14:51:54;26.30;93.10
57843;DHT22;43673;51.058;3.734;2023-08-12T14:54:20;26.30;93.60
57843;DHT22;43673;51.058;3.734;2023-08-12T14:56:46;26.30;93.60
57843;DHT22;43673;51.058;3.734;2023-08-12T14:59:12;26.30;93.30
57843;DHT22;43673;51.058;3.734;2023-08-12T15:01:38;26.30;93.20
57843;DHT22;43673;51.058;3.734;2023-08-12T15:04:04;26.30;93.10
57843;DHT22;43673;51.058;3.734;2023-08-12T15:06:30;26.30;92.50
57843;DHT22;43673;51.058;3.734;2023-08-12T15:08:56;26.30;92.30
57843;DHT22;43673;51.058;3.734;2023-08-12T15:11:22;26.30;92.80
57843;DHT22;43673;51.058;3.734;2023-08-12T15:13:48;26.30;92.60
57843;DHT22;43673;51.058;3.734;2023-08-12T15:16:14;26.30;92.50
57843;DHT22;43673;51.058;3.734;2023-08-12T15:18:39;26.30;92.80
57843;DHT22;43673;51.058;3.734;2023-08-12T15:21:05;26.30;92.80
57843;DHT22;43673;51.058;3.734;2023-08-12T15:23:31;26.30;93.10
57843;DHT22;43673;51.058;3.734;2023-08-12T15:25:58;26.10;93.10
57843;DHT22;43673;51.058;3.734;2023-08-12T15:28:24;26.00;92.90
57843;DHT22;43673;51.058;3.734;2023-08-12T15:30:52;26.10;93.10
57843;DHT22;43673;51.058;3.734;2023-08-12T15:33:18;26.20;92.80
57843;DHT22;43673;51.058;3.734;2023-08-12T15:35:43;26.10;92.80
57843;DHT22;43673;51.058;3.734;2023-08-12T15:38:09;26.00;92.80
57843;DHT22;43673;51.058;3.734;2023-08-12T15:40:38;26.20;92.60
57843;DHT22;43673;51.058;3.734;2023-08-12T15:43:04;26.20;92.70
57843;DHT22;43673;51.058;3.734;2023-08-12T15:45:30;26.00;92.80
57843;DHT22;43673;51.058;3.734;2023-08-12T15:47:56;26.00;93.10
57843;DHT22;43673;51.058;3.734;2023-08-12T15:50:21;25.80;93.20
57843;DHT22;43673;51.058;3.734;2023-08-12T15:52:47;25.80;93.20
57843;DHT22;43673;51.058;3.734;2023-08-12T15:55:13;25.80;93.30
57843;DHT22;43673;51.058;3.734;2023-08-12T15:57:38;25.80;93.20
57843;DHT22;43673;51.058;3.734;2023-08-12T16:00:05;25.90;93.40
57843;DHT22;43673;51.058;3.734;2023-08-12T16:02:33;25.80;93.60
57843;DHT22;43673;51.058;3.734;2023-08-12T16:04:59;25.80;93.20
57843;DHT22;43673;51.058;3.734;2023-08-12T16:07:25;25.80;93.40
57843;DHT22;43673;51.058;3.734;2023-08-12T16:09:51;25.50;93.20
57843;DHT22;43673;51.058;3.734;2023-08-12T16:12:16;25.30;93.10